Time;durP1;ratioP1;P1;durP2;ratioP2;P2;SDS_P1;SDS_P2;PMS_P1;PMS_P2;Temp;Humidity;BMP_temperature;BMP_pressure;BME280_temperature;BME280_humidity;BME280_pressure;Samples;Min_cycle;Max_cycle;Signal;HPM_P1;HPM_P2
2022/02/13 00:01:37;;;;;;;;;;;;;;;-2.66;94.75;99503.28;4936905;29;19911;-69
2022/02/13 00:04:03;;;;;;;;;;;;;;;-2.62;94.68;99508.56;4925694;29;19915;-69
2022/02/13 00:06:28;;;;;;;;;;;;;;;-2.62;94.69;99507.72;4934934;29;19966;-69
2022/02/13 00:08:54;;;;;;;;;;;;;;;-2.64;94.44;99499.16;4937095;29;19969;-69
2022/02/13 00:11:19;;;;;;;;;;;;;;;-2.71;94.74;99507.28;4935718;29;19958;-69
2022/02/13 00:13:45;;;;;;;;;;;;;;;-2.71;94.87;99507.28;4936861;29;19914;-69
2022/02/13 00:16:11;;;;;;;;;;;;;;;-2.73;94.85;99499.59;4935878;29;19926;-69
2022/02/13 00:18:36;;;;;;;;;;;;;;;-2.74;94.92;99502.09;4936852;29;20295;-69
2022/02/13 00:21:01;;;;;;;;;;;;;;;-2.74;95.14;99491.94;4937047;29;19961;-69
2022/02/13 00:23:26;;;;;;;;;;;;;;;-2.71;95.13;99487.00;4936709;29;20043;-69
2022/02/13 00:25:51;;;;;;;;;;;;;;;-2.74;94.86;99491.94;4936392;29;20385;-69
2022/02/13 00:28:17;;;;;;;;;;;;;;;-2.69;94.92;99486.28;4936534;29;19917;-69
2022/02/13 00:30:46;;;;;;;;;;;;;;;-2.75;94.74;99480.94;4936873;29;19918;-69
2022/02/13 00:33:12;;;;;;;;;;;;;;;-2.73;94.77;99486.94;4931079;28;19911;-69
2022/02/13 00:35:38;;;;;;;;;;;;;;;-2.70;94.58;99483.69;4928580;29;20364;-69
2022/02/13 00:38:04;;;;;;;;;;;;;;;-2.67;94.46;99474.53;4936301;29;19957;-69
2022/02/13 00:40:30;;;;;;;;;;;;;;;-2.64;94.45;99476.34;4936373;28;19911;-69
2022/02/13 00:42:55;;;;;;;;;;;;;;;-2.69;94.44;99480.34;4936144;29;19945;-69
2022/02/13 00:45:20;;;;;;;;;;;;;;;-2.70;94.45;99483.69;4936282;29;19989;-70
2022/02/13 00:47:45;;;;;;;;;;;;;;;-2.77;94.86;99484.19;4936026;29;19918;-69
2022/02/13 00:50:10;;;;;;;;;;;;;;;-2.78;95.12;99485.00;4936318;29;19910;-69
2022/02/13 00:52:36;;;;;;;;;;;;;;;-2.77;95.19;99486.72;4936037;29;20288;-69
2022/02/13 00:55:01;;;;;;;;;;;;;;;-2.82;95.10;99489.03;4936184;29;20270;-69
2022/02/13 00:57:27;;;;;;;;;;;;;;;-2.79;95.29;99490.88;4935858;29;19911;-69
2022/02/13 00:59:52;;;;;;;;;;;;;;;-2.75;94.99;99486.00;4936024;28;19910;-69
2022/02/13 08:01:57;;;;;;;;;;;;;;;-2.38;90.31;99266.91;5220951;23;19987;-68
2022/02/13 08:04:22;;;;;;;;;;;;;;;-2.22;90.01;99251.53;4925857;29;19919;-69
2022/02/13 08:06:47;;;;;;;;;;;;;;;-2.22;89.75;99260.81;4937201;29;19914;-69
2022/02/13 08:09:13;;;;;;;;;;;;;;;-2.23;89.36;99256.50;4937007;29;20375;-69
2022/02/13 08:11:38;;;;;;;;;;;;;;;-2.15;89.37;99250.09;4937056;29;19915;-69
2022/02/13 08:14:04;;;;;;;;;;;;;;;-1.78;88.70;99251.53;4937004;23;19929;-72
2022/02/13 08:16:29;;;;;;;;;;;;;;;-1.09;86.46;99245.63;4917718;29;20387;-72
2022/02/13 08:18:54;;;;;;;;;;;;;;;0.66;78.60;99233.44;4918004;29;19918;-72
2022/02/13 08:21:19;;;;;;;;;;;;;;;0.40;76.31;99240.34;4917732;29;19918;-72
2022/02/13 08:23:45;;;;;;;;;;;;;;;-0.13;78.84;99240.41;4878234;28;19923;-72
2022/02/13 08:26:10;;;;;;;;;;;;;;;0.92;74.85;99239.25;4898842;29;19911;-72
2022/02/13 08:28:35;;;;;;;;;;;;;;;2.41;69.66;99215.69;4899023;29;19979;-72
2022/02/13 08:31:01;;;;;;;;;;;;;;;3.88;64.19;99218.47;4898751;29;19958;-72
2022/02/13 08:33:27;;;;;;;;;;;;;;;4.59;60.97;99211.78;4906421;29;19911;-73
2022/02/13 08:35:52;;;;;;;;;;;;;;;5.37;57.77;99210.09;4910121;29;19966;-73
2022/02/13 08:38:17;;;;;;;;;;;;;;;5.81;55.72;99209.63;4917115;29;19911;-73
2022/02/13 08:40:42;;;;;;;;;;;;;;;6.01;54.67;99204.69;4917629;29;19911;-73
2022/02/13 08:43:08;;;;;;;;;;;;;;;7.61;50.96;99198.44;4917447;29;19916;-73
2022/02/13 08:45:34;;;;;;;;;;;;;;;7.66;50.64;99194.13;4917424;29;19911;-73
2022/02/13 08:47:59;;;;;;;;;;;;;;;7.99;49.82;99194.13;4917334;29;19917;-73
2022/02/13 08:50:25;;;;;;;;;;;;;;;7.38;49.69;99195.81;4917494;29;19915;-73
2022/02/13 08:52:51;;;;;;;;;;;;;;;7.76;49.04;99190.69;4917291;29;20383;-73
2022/02/13 08:55:16;;;;;;;;;;;;;;;8.47;48.49;99187.19;4917328;29;19964;-74
2022/02/13 08:57:42;;;;;;;;;;;;;;;8.78;47.62;99181.91;4917104;29;20383;-73
2022/02/13 09:00:08;;;;;;;;;;;;;;;9.86;45.45;99172.56;4917208;29;19953;-73
2022/02/13 09:02:33;;;;;;;;;;;;;;;10.48;43.55;99172.84;4911061;29;20280;-73
2022/02/13 09:04:59;;;;;;;;;;;;;;;9.29;45.91;99182.50;4909191;29;19934;-73
2022/02/13 09:07:24;;;;;;;;;;;;;;;8.44;46.09;99184.59;4916870;29;20329;-73
2022/02/13 09:09:49;;;;;;;;;;;;;;;8.24;47.77;99183.75;4917145;29;19961;-74
2022/02/13 09:12:19;;;;;;;;;;;;;;;9.66;45.45;99169.28;4916965;29;19953;-73
2022/02/13 09:14:44;;;;;;;;;;;;;;;10.28;44.30;99160.13;4916828;29;19919;-73
2022/02/13 09:17:09;;;;;;;;;;;;;;;10.27;44.35;99158.41;4916732;29;19918;-73
2022/02/13 09:19:34;;;;;;;;;;;;;;;9.09;45.86;99166.22;4916957;29;19918;-73
2022/02/13 09:21:59;;;;;;;;;;;;;;;9.87;44.42;99153.59;4916839;29;19911;-73
2022/02/13 09:24:25;;;;;;;;;;;;;;;10.97;43.32;99152.34;4916643;29;19938;-73
2022/02/13 09:26:50;;;;;;;;;;;;;;;9.46;45.37;99157.38;4916612;29;19910;-73
2022/02/13 09:29:15;;;;;;;;;;;;;;;9.08;46.51;99146.41;4916694;29;19958;-73
2022/02/13 09:31:40;;;;;;;;;;;;;;;9.81;45.87;99147.59;4916486;29;19914;-73
2022/02/13 09:34:06;;;;;;;;;;;;;;;9.75;45.43;99148.50;4905315;29;19998;-73
2022/02/13 09:36:31;;;;;;;;;;;;;;;10.15;45.25;99132.59;4914381;29;19949;-73
2022/02/13 09:38:56;;;;;;;;;;;;;;;10.79;43.54;99126.69;4916604;29;20420;-73
2022/02/13 09:41:22;;;;;;;;;;;;;;;11.23;42.73;99125.22;4916624;29;19934;-73
2022/02/13 09:43:47;;;;;;;;;;;;;;;12.29;41.01;99113.91;4916371;29;20526;-73
2022/02/13 09:46:14;;;;;;;;;;;;;;;13.34;39.21;99114.25;4916584;29;20376;-73
2022/02/13 09:48:39;;;;;;;;;;;;;;;14.53;37.31;99112.88;4915821;29;19911;-73
2022/02/13 09:51:04;;;;;;;;;;;;;;;13.15;39.77;99119.84;4916427;29;19918;-73
2022/02/13 09:53:34;;;;;;;;;;;;;;;13.23;39.66;99110.16;4916443;29;20376;-74
2022/02/13 09:56:00;;;;;;;;;;;;;;;14.47;37.27;99107.81;4916296;29;19918;-73
2022/02/13 09:58:25;;;;;;;;;;;;;;;13.07;39.66;99115.69;4916325;29;20335;-73
2022/02/13 10:00:56;;;;;;;;;;;;;;;14.41;37.01;99105.41;4916468;29;19966;-73
2022/02/13 10:03:23;;;;;;;;;;;;;;;12.67;40.01;99109.63;4910123;29;19922;-74
2022/02/13 10:05:48;;;;;;;;;;;;;;;14.77;36.87;99102.63;4900795;29;19975;-73
2022/02/13 10:08:27;;;;;;;;;;;;;;;14.99;35.99;99108.94;4916364;29;19910;-74
2022/02/13 10:11:15;;;;;;;;;;;;;;;16.15;34.71;99094.66;4916115;29;19918;-74
2022/02/13 10:13:45;;;;;;;;;;;;;;;17.68;32.83;99083.50;4916453;29;19915;-73
2022/02/13 10:16:17;;;;;;;;;;;;;;;17.36;32.85;99070.91;4916031;29;19917;-73
2022/02/13 10:18:53;;;;;;;;;;;;;;;15.20;35.84;99093.50;4916156;29;20009;-74
2022/02/13 10:21:44;;;;;;;;;;;;;;;14.85;36.91;99085.00;4916118;29;19911;-74
2022/02/13 10:24:28;;;;;;;;;;;;;;;15.57;36.03;99070.50;4915046;29;19919;-73
2022/02/13 10:26:53;;;;;;;;;;;;;;;17.29;33.64;99058.97;4915991;29;19911;-74
2022/02/13 10:29:20;;;;;;;;;;;;;;;17.62;32.94;99057.56;4914917;29;20265;-74
2022/02/13 10:31:45;;;;;;;;;;;;;;;17.56;32.96;99047.34;4914841;29;20011;-74
2022/02/13 10:34:12;;;;;;;;;;;;;;;17.94;33.05;99042.28;4904769;29;20371;-74
2022/02/13 10:36:38;;;;;;;;;;;;;;;19.46;30.70;99050.00;4914502;29;19911;-74
2022/02/13 10:39:14;;;;;;;;;;;;;;;19.80;30.38;99042.22;4916211;29;19934;-74
2022/02/13 10:41:39;;;;;;;;;;;;;;;19.26;30.31;99043.13;4915997;29;19917;-74
2022/02/13 10:44:06;;;;;;;;;;;;;;;20.84;29.36;99029.66;4915899;29;19919;-74
2022/02/13 10:46:39;;;;;;;;;;;;;;;22.08;26.82;99027.66;4915620;29;20321;-74
2022/02/13 10:49:05;;;;;;;;;;;;;;;21.52;27.85;99016.09;4916033;29;19984;-74
2022/02/13 10:51:31;;;;;;;;;;;;;;;21.85;27.58;99015.84;4915886;29;19915;-72
2022/02/13 10:53:57;;;;;;;;;;;;;;;20.79;28.49;99008.81;4915941;29;19911;-71
2022/02/13 10:56:22;;;;;;;;;;;;;;;21.15;28.62;99002.38;4915645;29;19990;-71
2022/02/13 10:58:48;;;;;;;;;;;;;;;19.76;29.88;99000.31;4914813;29;19918;-71
2022/02/13 11:01:15;;;;;;;;;;;;;;;22.04;25.82;98989.19;4918253;29;19915;-69
2022/02/13 11:03:42;;;;;;;;;;;;;;;22.90;25.37;98994.41;4910665;29;20010;-70
2022/02/13 11:06:07;;;;;;;;;;;;;;;24.20;23.53;98978.50;4913949;29;19990;-70
2022/02/13 11:08:34;;;;;;;;;;;;;;;24.94;22.53;98973.22;4919257;29;19915;-70
2022/02/13 11:11:00;;;;;;;;;;;;;;;23.99;23.01;98974.75;4919248;29;19967;-70
2022/02/13 11:13:30;;;;;;;;;;;;;;;23.94;22.32;98966.28;4918935;29;19927;-70
2022/02/13 11:15:55;;;;;;;;;;;;;;;24.10;22.13;98961.59;4918972;29;19911;-70
2022/02/13 11:18:34;;;;;;;;;;;;;;;23.71;22.47;98965.22;4918971;29;19953;-71
2022/02/13 11:20:59;;;;;;;;;;;;;;;22.77;23.54;98967.91;4919263;29;19911;-70
2022/02/13 11:23:24;;;;;;;;;;;;;;;21.44;24.42;98958.53;4918801;29;20696;-70
2022/02/13 11:25:51;;;;;;;;;;;;;;;20.58;25.41;98954.72;4918756;29;19911;-70
2022/02/13 11:28:16;;;;;;;;;;;;;;;19.42;26.85;98950.38;4919030;29;19966;-69
2022/02/13 11:30:52;;;;;;;;;;;;;;;19.54;26.79;98946.28;4918895;29;20345;-70
2022/02/13 11:33:23;;;;;;;;;;;;;;;18.07;28.27;98949.00;4912761;29;19911;-72
2022/02/13 11:35:54;;;;;;;;;;;;;;;18.67;28.49;98944.44;4903092;29;20278;-71
2022/02/13 11:38:37;;;;;;;;;;;;;;;18.80;27.76;98938.59;4918560;29;19911;-71
2022/02/13 11:41:03;;;;;;;;;;;;;;;18.11;28.73;98934.84;4918496;29;19970;-71
2022/02/13 11:43:43;;;;;;;;;;;;;;;20.07;26.67;98914.53;4917145;29;20010;-71
2022/02/13 11:46:09;;;;;;;;;;;;;;;19.82;26.58;98914.97;4918491;29;20054;-71
2022/02/13 11:48:36;;;;;;;;;;;;;;;21.00;25.32;98906.63;4918476;29;19966;-70
2022/02/13 11:51:01;;;;;;;;;;;;;;;20.37;24.96;98906.72;4918363;29;19959;-70
2022/02/13 11:53:28;;;;;;;;;;;;;;;20.08;25.70;98903.06;4918369;29;20364;-70
2022/02/13 11:55:53;;;;;;;;;;;;;;;18.74;28.61;98892.50;4918292;29;19911;-70
2022/02/13 11:58:19;;;;;;;;;;;;;;;18.34;27.88;98893.56;4918328;29;19918;-70
2022/02/13 12:00:51;;;;;;;;;;;;;;;16.56;30.14;98901.31;4918217;29;19918;-70
2022/02/13 12:03:17;;;;;;;;;;;;;;;18.12;28.36;98891.94;4911989;29;19919;-70
2022/02/13 12:05:43;;;;;;;;;;;;;;;18.78;27.23;98882.72;4908939;29;20005;-70
2022/02/13 12:08:08;;;;;;;;;;;;;;;18.72;27.92;98884.72;4918450;29;20010;-71
2022/02/13 12:10:39;;;;;;;;;;;;;;;20.37;25.37;98874.28;4918217;29;19918;-71
2022/02/13 12:13:04;;;;;;;;;;;;;;;20.52;25.49;98862.91;4917464;29;19911;-71
2022/02/13 12:15:29;;;;;;;;;;;;;;;19.59;26.21;98861.00;4917741;29;20396;-71
2022/02/13 12:18:15;;;;;;;;;;;;;;;16.92;28.60;98867.59;4917985;29;19997;-71
2022/02/13 12:20:41;;;;;;;;;;;;;;;18.73;27.57;98854.91;4917748;29;19919;-71
2022/02/13 12:23:08;;;;;;;;;;;;;;;17.78;28.43;98857.72;4917752;29;20269;-71
2022/02/13 12:25:34;;;;;;;;;;;;;;;19.13;27.18;98839.75;4916553;29;20376;-71
2022/02/13 12:27:59;;;;;;;;;;;;;;;20.55;25.72;98833.81;4917781;29;19914;-71
2022/02/13 12:30:26;;;;;;;;;;;;;;;19.89;26.30;98826.09;4917637;29;19922;-71
2022/02/13 12:32:55;;;;;;;;;;;;;;;19.35;25.80;98830.75;4908185;29;19967;-71
2022/02/13 12:35:25;;;;;;;;;;;;;;;17.83;28.35;98824.28;4906414;29;19918;-71
2022/02/13 12:37:51;;;;;;;;;;;;;;;16.74;29.56;98817.81;4898685;29;19977;-71
2022/02/13 12:40:17;;;;;;;;;;;;;;;15.42;31.48;98820.31;4899206;29;20025;-71
2022/02/13 12:42:43;;;;;;;;;;;;;;;14.38;34.30;98814.34;4898513;29;19967;-71
2022/02/13 12:45:13;;;;;;;;;;;;;;;12.93;36.36;98821.25;4898502;29;19915;-71
2022/02/13 12:47:39;;;;;;;;;;;;;;;12.97;36.74;98809.88;4898652;29;19919;-71
2022/02/13 12:50:12;;;;;;;;;;;;;;;12.92;36.23;98808.31;4898524;29;19918;-71
2022/02/13 12:52:38;;;;;;;;;;;;;;;12.83;36.47;98804.19;4898546;29;19911;-71
2022/02/13 12:55:05;;;;;;;;;;;;;;;12.50;36.80;98798.97;4898536;29;19912;-71
2022/02/13 12:57:31;;;;;;;;;;;;;;;12.97;36.32;98791.69;4898176;29;19911;-71
2022/02/13 12:59:56;;;;;;;;;;;;;;;13.33;35.82;98794.16;4898277;29;19918;-71
2022/02/13 13:02:23;;;;;;;;;;;;;;;13.40;36.19;98792.25;4898378;29;20270;-71
2022/02/13 13:04:48;;;;;;;;;;;;;;;13.49;36.13;98789.34;4900138;29;20292;-71
2022/02/13 13:07:21;;;;;;;;;;;;;;;13.20;36.30;98784.97;4917008;29;19911;-71
2022/02/13 13:09:46;;;;;;;;;;;;;;;13.54;37.12;98785.75;4917062;29;20381;-71
2022/02/13 13:12:15;;;;;;;;;;;;;;;13.45;36.82;98775.59;4917184;29;19918;-70
2022/02/13 13:14:40;;;;;;;;;;;;;;;13.36;36.39;98770.66;4916745;29;19959;-70
2022/02/13 13:17:06;;;;;;;;;;;;;;;13.22;36.54;98765.00;4916805;29;20001;-71
2022/02/13 13:19:33;;;;;;;;;;;;;;;13.32;37.35;98756.03;4916845;29;20059;-71
2022/02/13 13:21:59;;;;;;;;;;;;;;;13.52;37.44;98753.69;4917021;29;19911;-71
2022/02/13 13:24:26;;;;;;;;;;;;;;;13.10;36.68;98751.44;4916465;29;20391;-71
2022/02/13 13:26:54;;;;;;;;;;;;;;;13.31;37.30;98743.91;4916570;29;20014;-71
2022/02/13 13:29:33;;;;;;;;;;;;;;;13.07;36.61;98750.66;4916691;29;19911;-71
2022/02/13 13:32:09;;;;;;;;;;;;;;;13.27;36.25;98732.75;4913846;29;19912;-71
2022/02/13 13:34:36;;;;;;;;;;;;;;;13.05;36.48;98732.50;4906869;29;19934;-72
2022/02/13 13:37:21;;;;;;;;;;;;;;;12.81;36.50;98733.16;4916462;29;19911;-71
2022/02/13 13:39:57;;;;;;;;;;;;;;;13.01;37.43;98725.69;4916438;29;19922;-71
2022/02/13 13:42:27;;;;;;;;;;;;;;;12.70;37.00;98719.63;4916652;29;19911;-71
2022/02/13 13:45:00;;;;;;;;;;;;;;;12.74;36.99;98716.03;4916380;29;20296;-71
2022/02/13 13:47:25;;;;;;;;;;;;;;;12.73;36.86;98706.53;4916484;29;20341;-70
2022/02/13 13:49:50;;;;;;;;;;;;;;;12.61;37.91;98700.78;4916268;29;19915;-70
2022/02/13 13:52:15;;;;;;;;;;;;;;;13.12;37.44;98692.38;4931135;29;19915;-69
2022/02/13 13:54:40;;;;;;;;;;;;;;;13.27;36.52;98687.66;4916256;29;19919;-71
2022/02/13 13:57:08;;;;;;;;;;;;;;;13.53;36.95;98672.06;4916233;29;19918;-71
2022/02/13 13:59:33;;;;;;;;;;;;;;;13.11;36.67;98679.44;4915062;29;19911;-71
2022/02/13 14:01:58;;;;;;;;;;;;;;;12.98;37.35;98678.94;4913402;29;20297;-71
2022/02/13 14:04:24;;;;;;;;;;;;;;;12.97;37.19;98674.66;4904927;29;19963;-71
2022/02/13 14:06:49;;;;;;;;;;;;;;;13.02;37.17;98659.75;4916126;29;19915;-72
2022/02/13 14:09:14;;;;;;;;;;;;;;;12.89;38.55;98658.41;4916255;29;19911;-71
2022/02/13 14:11:41;;;;;;;;;;;;;;;13.29;37.30;98654.63;4916242;29;19918;-71
2022/02/13 14:14:07;;;;;;;;;;;;;;;13.31;35.77;98639.84;4916624;29;19967;-72
2022/02/13 14:16:32;;;;;;;;;;;;;;;12.99;35.75;98644.22;4915969;29;19911;-72
2022/02/13 14:18:57;;;;;;;;;;;;;;;12.89;36.70;98645.41;4916083;29;19918;-72
2022/02/13 14:21:22;;;;;;;;;;;;;;;12.52;36.54;98648.19;4916083;29;19919;-71
2022/02/13 14:23:48;;;;;;;;;;;;;;;12.65;37.00;98643.50;4916129;29;19922;-71
2022/02/13 14:26:14;;;;;;;;;;;;;;;12.71;36.92;98638.13;4915846;29;20384;-71
2022/02/13 14:28:39;;;;;;;;;;;;;;;12.79;36.79;98630.97;4915996;29;20017;-71
2022/02/13 14:31:04;;;;;;;;;;;;;;;13.04;36.64;98626.72;4916066;29;20218;-71
2022/02/13 14:33:30;;;;;;;;;;;;;;;13.10;37.46;98629.16;4908817;29;19911;-71
2022/02/13 14:35:55;;;;;;;;;;;;;;;12.65;37.16;98623.56;4909434;29;19917;-71
2022/02/13 14:38:20;;;;;;;;;;;;;;;12.86;36.65;98622.06;4919716;29;19946;-71
2022/02/13 14:40:45;;;;;;;;;;;;;;;12.80;37.29;98623.13;4919614;29;19921;-71
2022/02/13 14:43:11;;;;;;;;;;;;;;;12.78;36.05;98618.88;4919475;29;19997;-72
2022/02/13 14:45:36;;;;;;;;;;;;;;;12.83;36.31;98611.78;4919650;29;20361;-72
2022/02/13 14:48:02;;;;;;;;;;;;;;;12.81;36.90;98608.34;4919402;29;19961;-72
2022/02/13 14:50:27;;;;;;;;;;;;;;;12.73;35.88;98615.56;4919598;29;19918;-72
2022/02/13 14:52:52;;;;;;;;;;;;;;;12.47;36.67;98604.13;4919462;29;19911;-72
2022/02/13 14:55:17;;;;;;;;;;;;;;;12.48;36.29;98605.88;4919548;29;19954;-71
2022/02/13 14:57:42;;;;;;;;;;;;;;;12.37;36.86;98607.91;4919147;29;19966;-71
2022/02/13 15:00:09;;;;;;;;;;;;;;;12.46;36.83;98602.44;4919433;29;19911;-71
2022/02/13 15:02:34;;;;;;;;;;;;;;;12.53;36.53;98598.78;4912672;29;19918;-72
2022/02/13 15:04:59;;;;;;;;;;;;;;;12.46;36.48;98599.84;4911209;29;19919;-71
2022/02/13 15:07:26;;;;;;;;;;;;;;;12.36;36.35;98601.00;4919042;29;19911;-71
2022/02/13 15:09:52;;;;;;;;;;;;;;;12.23;37.00;98600.50;4919244;29;20308;-71
2022/02/13 15:12:17;;;;;;;;;;;;;;;12.16;37.20;98595.50;4919103;29;19911;-71
2022/02/13 15:14:46;;;;;;;;;;;;;;;12.06;37.46;98600.94;4918870;29;20419;-71
2022/02/13 15:17:11;;;;;;;;;;;;;;;12.12;36.12;98596.50;4918823;29;19918;-71
2022/02/13 15:19:37;;;;;;;;;;;;;;;12.07;36.34;98592.25;4933515;29;19914;-71
2022/02/13 15:22:02;;;;;;;;;;;;;;;12.04;37.29;98581.97;4918892;29;19918;-71
2022/02/13 15:24:28;;;;;;;;;;;;;;;11.96;37.57;98586.50;4918758;29;19915;-71
2022/02/13 15:26:53;;;;;;;;;;;;;;;11.95;37.97;98583.97;4918480;29;20372;-69
2022/02/13 15:29:19;;;;;;;;;;;;;;;11.94;38.13;98574.44;4918669;29;19918;-69
2022/02/13 15:31:44;;;;;;;;;;;;;;;11.86;37.66;98574.69;4916303;29;19915;-69
2022/02/13 15:34:10;;;;;;;;;;;;;;;11.77;37.98;98574.88;4906080;29;20303;-69
2022/02/13 15:36:36;;;;;;;;;;;;;;;11.71;37.93;98569.84;4916320;29;20010;-69
2022/02/13 15:39:02;;;;;;;;;;;;;;;11.55;38.63;98564.19;4933077;29;20001;-69
2022/02/13 15:41:27;;;;;;;;;;;;;;;11.49;38.53;98557.41;4918709;29;19918;-69
2022/02/13 15:43:52;;;;;;;;;;;;;;;11.64;38.65;98555.31;4918420;29;20407;-69
2022/02/13 15:46:17;;;;;;;;;;;;;;;11.47;38.91;98551.41;4917245;29;20357;-69
2022/02/13 15:48:43;;;;;;;;;;;;;;;11.41;39.24;98551.59;4918190;29;19917;-69
2022/02/13 15:51:08;;;;;;;;;;;;;;;11.39;38.64;98548.16;4918614;29;19965;-69
2022/02/13 15:53:33;;;;;;;;;;;;;;;11.33;38.56;98545.72;4918380;29;19911;-69
2022/02/13 15:55:58;;;;;;;;;;;;;;;11.16;39.45;98540.09;4918123;29;19918;-69
2022/02/13 15:59:28;;;;;;;0.82;0.82;;;;;;;11.07;39.25;98542.03;4910272;27;20189;-68
2022/02/13 16:01:54;;;;;;;8.50;1.25;;;;;;;11.00;39.69;98535.28;5038444;28;20040;-68
2022/02/13 16:04:19;;;;;;;0.52;0.52;;;;;;;10.87;39.69;98528.66;5078910;28;20028;-68
2022/02/13 16:06:45;;;;;;;4.88;1.15;;;;;;;10.86;40.60;98537.34;5068911;28;20025;-68
2022/02/13 16:09:11;;;;;;;1.02;0.93;;;;;;;10.72;40.63;98529.88;5068980;28;20543;-68
2022/02/13 16:11:36;;;;;;;8.95;5.07;;;;;;;10.54;41.88;98525.97;5069179;28;20047;-68
2022/02/13 16:14:02;;;;;;;1.15;1.15;;;;;;;10.51;41.35;98526.03;5069091;28;20519;-67
2022/02/13 16:16:27;;;;;;;1.77;1.52;;;;;;;10.39;41.82;98518.50;5068758;28;20033;-68
2022/02/13 16:18:52;;;;;;;2.30;1.45;;;;;;;10.30;43.71;98518.72;5068750;28;20028;-68
2022/02/13 16:21:18;;;;;;;0.93;0.90;;;;;;;9.63;45.90;98522.59;5068776;28;20129;-67
2022/02/13 16:26:27;;;;;;;1.85;1.40;;;;;;;9.04;48.34;98516.72;5068765;28;20032;-68
2022/02/13 16:28:52;;;;;;;1.27;1.17;;;;;;;8.79;48.85;98511.91;5068658;28;20025;-68
2022/02/13 16:31:17;;;;;;;2.75;1.38;;;;;;;8.63;49.41;98511.31;5068680;28;20016;-68
2022/02/13 16:33:43;;;;;;;3.28;1.38;;;;;;;8.54;49.51;98510.59;5068502;28;20055;-67
2022/02/13 16:36:08;;;;;;;5.55;1.55;;;;;;;8.44;49.79;98510.72;5068323;28;20070;-67
2022/02/13 16:38:34;;;;;;;1.73;1.63;;;;;;;8.35;49.95;98515.97;5068314;28;20078;-68
2022/02/13 16:40:59;;;;;;;3.10;1.17;;;;;;;8.28;50.29;98509.19;5068222;28;20059;-68
2022/02/13 16:43:25;;;;;;;1.20;1.20;;;;;;;8.09;51.09;98507.72;5068305;28;20146;-68
2022/02/13 16:45:50;;;;;;;2.40;1.77;;;;;;;8.01;51.33;98505.22;5068114;28;20035;-68
2022/02/13 16:48:15;;;;;;;1.48;1.38;;;;;;;7.84;51.61;98508.00;5068400;28;20056;-68
2022/02/13 16:50:40;;;;;;;2.17;1.65;;;;;;;7.80;51.70;98506.31;5068429;28;20024;-67
2022/02/13 16:53:06;;;;;;;1.35;1.17;;;;;;;7.71;52.00;98504.69;5068227;28;20040;-67
2022/02/13 16:55:31;;;;;;;3.45;1.42;;;;;;;7.62;52.67;98506.53;5068387;28;20025;-68
2022/02/13 16:57:57;;;;;;;0.73;0.73;;;;;;;7.55;52.30;98502.31;5068146;28;20028;-68
2022/02/13 17:00:22;;;;;;;2.00;1.90;;;;;;;7.40;52.88;98501.59;5068221;28;20025;-68
2022/02/13 17:02:48;;;;;;;2.75;1.52;;;;;;;7.28;54.10;98496.53;5067939;28;20103;-68
2022/02/13 17:05:14;;;;;;;1.98;1.02;;;;;;;7.13;53.23;98494.97;5067908;28;20025;-67
2022/02/13 17:07:39;;;;;;;1.67;1.23;;;;;;;7.13;52.93;98496.69;5067722;28;20036;-67
2022/02/13 17:10:05;;;;;;;9.20;2.85;;;;;;;7.09;53.52;98495.00;5058780;28;20028;-67
2022/02/13 17:12:30;;;;;;;2.67;1.83;;;;;;;6.99;53.78;98495.94;5054830;28;20043;-67
2022/02/13 17:14:56;;;;;;;1.60;1.50;;;;;;;6.90;53.45;98495.16;5054472;28;20438;-66
2022/02/13 17:17:21;;;;;;;1.45;1.15;;;;;;;6.76;54.58;98502.13;5054383;28;20040;-66
2022/02/13 17:19:48;;;;;;;1.95;1.75;;;;;;;6.77;53.89;98497.81;5054685;28;20029;-67
2022/02/13 17:22:13;;;;;;;1.27;1.17;;;;;;;6.78;53.55;98495.25;5054476;28;20020;-68
2022/02/13 17:24:38;;;;;;;1.38;1.30;;;;;;;6.86;52.60;98496.03;5054364;28;20036;-68
2022/02/13 17:27:04;;;;;;;2.20;1.75;;;;;;;6.88;52.92;98496.91;5054306;28;20028;-68
2022/02/13 17:29:29;;;;;;;2.03;1.88;;;;;;;6.95;51.30;98498.53;5054492;28;20028;-68
2022/02/13 17:31:55;;;;;;;1.73;0.95;;;;;;;7.05;49.95;98494.16;5054323;28;20025;-68
2022/02/13 17:34:20;;;;;;;1.25;1.23;;;;;;;7.09;51.16;98497.56;5054219;28;20496;-68
2022/02/13 17:36:45;;;;;;;0.85;0.85;;;;;;;7.03;50.38;98500.22;5054001;28;20021;-68
2022/02/13 17:39:11;;;;;;;1.25;1.20;;;;;;;7.03;49.75;98500.22;5054222;28;20021;-69
2022/02/13 17:41:37;;;;;;;1.58;1.42;;;;;;;6.81;51.05;98490.06;5054354;28;20067;-68
2022/02/13 17:44:03;;;;;;;1.13;0.98;;;;;;;6.78;50.08;98500.41;5054105;28;20441;-68
2022/02/13 17:46:32;;;;;;;1.25;1.15;;;;;;;6.82;50.74;98496.94;5053940;28;20025;-68
2022/02/13 17:48:58;;;;;;;1.10;1.10;;;;;;;6.67;51.60;98497.03;5053922;28;20162;-68
2022/02/13 17:51:24;;;;;;;1.25;1.23;;;;;;;6.50;51.21;98493.75;5054024;28;20040;-68
2022/02/13 17:53:49;;;;;;;1.13;1.13;;;;;;;6.61;50.04;98494.50;5053798;28;20029;-68
2022/02/13 17:56:15;;;;;;;1.20;1.20;;;;;;;6.71;49.18;98498.72;5053704;28;20033;-68
2022/02/13 17:58:40;;;;;;;2.42;1.92;;;;;;;6.83;48.63;98498.66;5053749;28;20029;-68
2022/02/13 18:01:05;;;;;;;0.93;0.93;;;;;;;7.12;46.74;98479.53;5053804;28;20490;-68
2022/02/13 18:03:31;;;;;;;1.83;1.73;;;;;;;7.11;47.36;98481.25;5053555;28;20032;-68
2022/02/13 18:05:57;;;;;;;2.58;1.45;;;;;;;7.20;46.19;98482.88;5053365;28;20466;-68
2022/02/13 18:08:22;;;;;;;1.05;1.05;;;;;;;7.20;46.21;98475.13;5053891;28;20492;-68
2022/02/13 18:10:48;;;;;;;0.60;0.60;;;;;;;7.37;45.05;98470.69;5053616;28;20017;-68
2022/02/13 18:13:14;;;;;;;0.75;0.75;;;;;;;7.51;44.52;98464.53;5053722;28;20593;-66
2022/02/13 18:15:40;;;;;;;0.93;0.93;;;;;;;7.21;45.57;98464.00;5053548;28;20041;-66
2022/02/13 18:18:06;;;;;;;1.42;1.00;;;;;;;7.18;45.90;98461.44;5053392;28;20104;-66
2022/02/13 18:20:34;;;;;;;1.23;1.13;;;;;;;7.12;46.25;98459.78;5052850;28;20100;-66
2022/02/13 18:23:01;;;;;;;1.38;0.93;;;;;;;7.08;45.42;98462.38;5053116;28;20107;-66
2022/02/13 18:25:26;;;;;;;1.45;1.25;;;;;;;6.95;46.05;98467.63;5053226;28;20028;-66
2022/02/13 18:27:53;;;;;;;1.63;1.50;;;;;;;6.92;46.31;98452.22;5053207;28;20013;-66
2022/02/13 18:30:19;;;;;;;2.75;1.15;;;;;;;6.71;46.85;98457.53;5053191;28;20032;-67
2022/02/13 18:32:46;;;;;;;1.65;1.58;;;;;;;6.53;47.90;98457.69;5053059;28;20031;-68
2022/02/13 18:35:12;;;;;;;2.00;1.90;;;;;;;6.42;48.22;98460.31;5052977;28;20021;-67
2022/02/13 18:37:38;;;;;;;2.83;1.23;;;;;;;6.42;48.03;98458.59;5052819;28;20033;-67
2022/02/13 18:40:04;;;;;;;5.43;2.05;;;;;;;6.38;48.62;98454.34;5053252;28;20033;-67
2022/02/13 18:42:30;;;;;;;8.90;2.95;;;;;;;6.21;49.05;98461.31;5052928;28;20036;-66
2022/02/13 18:44:55;;;;;;;2.58;1.40;;;;;;;6.29;48.08;98458.72;5035244;28;20037;-70
2022/02/13 18:47:20;;;;;;;3.30;2.47;;;;;;;6.01;51.01;98458.00;5052682;28;20481;-70
2022/02/13 18:49:47;;;;;;;3.40;1.77;;;;;;;5.83;50.76;98454.59;5052911;28;20033;-70
2022/02/13 18:52:12;;;;;;;1.95;1.85;;;;;;;5.79;52.18;98452.91;5052884;28;20025;-70
2022/02/13 18:54:41;;;;;;;3.90;2.35;;;;;;;5.61;53.01;98447.88;5052802;28;20090;-70
2022/02/13 18:57:07;;;;;;;1.75;1.65;;;;;;;5.34;54.32;98449.63;5052375;28;20025;-70
2022/02/13 18:59:32;;;;;;;3.38;2.38;;;;;;;5.29;54.75;98450.50;5052625;28;20492;-70
2022/02/13 19:01:58;;;;;;;2.55;1.92;;;;;;;5.13;55.09;98447.13;5051820;28;20027;-70
2022/02/13 19:04:23;;;;;;;8.15;2.58;;;;;;;4.97;55.94;98453.13;5052355;28;20033;-70
2022/02/13 19:06:49;;;;;;;3.40;1.70;;;;;;;5.08;56.51;98446.28;5052343;28;20078;-70
2022/02/13 19:09:15;;;;;;;2.13;2.03;;;;;;;4.82;56.59;98444.56;5052612;28;20075;-70
2022/02/13 19:11:43;;;;;;;2.40;1.88;;;;;;;4.79;56.84;98443.75;5052726;28;20090;-70
2022/02/13 19:14:08;;;;;;;2.80;1.48;;;;;;;4.71;57.07;98441.16;5052258;28;20466;-70
2022/02/13 19:16:34;;;;;;;1.48;1.48;;;;;;;4.62;57.64;98436.03;5052291;28;20036;-70
2022/02/13 19:18:59;;;;;;;1.38;1.27;;;;;;;4.49;57.99;98440.28;5052201;28;20397;-70
2022/02/13 19:21:25;;;;;;;1.73;1.60;;;;;;;4.51;57.20;98437.75;5052484;28;20490;-70
2022/02/13 19:23:53;;;;;;;2.95;2.08;;;;;;;4.53;57.47;98430.88;5051644;28;20020;-70
2022/02/13 19:29:05;;;;;;;0.90;0.90;;;;;;;4.47;57.77;98436.03;5052490;28;20393;-70
2022/02/13 19:31:30;;;;;;;1.25;1.15;;;;;;;4.57;57.29;98422.34;5052178;28;20102;-70